Terminal Aerodrome Forecast
Issued by NWS

Home | Current Version | Previous Version | Text Only | Print | Product List | Glossary On
Versions: 1 2 3 4 5 6 7 8 9 10 11 12 13 14 15 16 17
000
FTUS43 KIND 211100
TAFLAF
TAF
KLAF 211136Z 2112/2212 14004KT 6SM HZ BKN035
     FM211800 16007KT P6SM SCT035
     FM220000 12005KT P6SM SCT040 BKN150
     FM220600 12005KT P6SM BKN080
      AMD LTD TO CLD VIS AND WIND TIL 211400=

USA.gov is the U.S. government's official web portal to all federal, state and local government web resources and services.